Time;durP1;ratioP1;P1;durP2;ratioP2;P2;SDS_P1;SDS_P2;PMS_P1;PMS_P2;Temp;Humidity;BMP_temperature;BMP_pressure;BME280_temperature;BME280_humidity;BME280_pressure;Samples;Min_cycle;Max_cycle;Signal;HPM_P1;HPM_P2
2022/08/16 00:00:32;;;;;;;1.83;1.73;;;;;;;;;;5117679;28;20203;-65
2022/08/16 00:03:00;;;;;;;2.30;2.10;;;;;;;;;;5116739;28;20719;-65
2022/08/16 00:05:28;;;;;;;2.03;1.80;;;;;;;;;;5118373;28;20244;-65
2022/08/16 00:07:57;;;;;;;2.00;1.90;;;;;;;;;;5120363;28;20195;-65
2022/08/16 00:10:25;;;;;;;2.15;1.70;;;;;;;;;;5120500;28;20199;-65
2022/08/16 00:12:54;;;;;;;1.95;1.85;;;;;;;;;;5120814;28;20684;-65
2022/08/16 00:15:23;;;;;;;2.00;1.90;;;;;;;;;;5120691;28;20537;-65
2022/08/16 00:17:50;;;;;;;1.85;1.75;;;;;;;;;;5120603;28;20594;-65
2022/08/16 00:20:18;;;;;;;1.95;1.77;;;;;;;;;;5120371;28;20203;-65
2022/08/16 00:22:45;;;;;;;2.17;2.08;;;;;;;;;;5120160;28;20191;-65
2022/08/16 00:25:16;;;;;;;2.03;1.92;;;;;;;;;;5120361;28;20211;-65
2022/08/16 00:27:43;;;;;;;2.38;2.10;;;;;;;;;;5120328;28;20207;-65
2022/08/16 00:30:13;;;;;;;2.10;1.90;;;;;;;;;;5119575;28;20203;-65
2022/08/16 00:32:42;;;;;;;1.90;1.80;;;;;;;;;;5119555;28;20229;-65
2022/08/16 00:35:11;;;;;;;1.80;1.70;;;;;;;;;;5119657;28;20195;-65
2022/08/16 00:37:39;;;;;;;2.05;1.95;;;;;;;;;;5119544;28;20248;-65
2022/08/16 00:40:07;;;;;;;1.90;1.80;;;;;;;;;;5119411;28;20218;-65
2022/08/16 00:42:35;;;;;;;2.00;1.90;;;;;;;;;;5118920;28;20260;-65
2022/08/16 00:45:04;;;;;;;2.00;1.90;;;;;;;;;;5119738;28;20211;-65
2022/08/16 00:47:34;;;;;;;2.08;1.98;;;;;;;;;;5119186;28;20280;-65
2022/08/16 00:50:02;;;;;;;1.90;1.80;;;;;;;;;;5119572;28;20199;-65
2022/08/16 00:52:29;;;;;;;2.28;1.90;;;;;;;;;;5119507;28;20230;-65
2022/08/16 00:54:57;;;;;;;1.80;1.70;;;;;;;;;;5118601;28;20301;-65
2022/08/16 00:57:24;;;;;;;2.10;2.00;;;;;;;;;;5119446;28;20210;-65
2022/08/16 00:59:52;;;;;;;2.00;1.90;;;;;;;;;;5118929;28;20648;-65
2022/08/16 01:02:19;;;;;;;2.00;1.90;;;;;;;;;;5118934;28;20199;-65
2022/08/16 01:04:48;;;;;;;1.80;1.70;;;;;;;;;;5119337;28;20225;-65
2022/08/16 01:07:15;;;;;;;2.47;2.28;;;;;;;;;;5119305;28;20625;-65
2022/08/16 01:09:42;;;;;;;2.03;1.92;;;;;;;;;;5119196;28;20202;-65
2022/08/16 01:12:10;;;;;;;2.05;1.95;;;;;;;;;;5119157;28;20276;-65
2022/08/16 01:14:41;;;;;;;2.00;1.90;;;;;;;;;;5118964;28;20206;-65
2022/08/16 01:17:09;;;;;;;1.95;1.85;;;;;;;;;;5118055;28;20298;-65
2022/08/16 01:19:39;;;;;;;2.08;1.98;;;;;;;;;;5119349;28;20473;-65
2022/08/16 01:22:12;;;;;;;2.00;1.90;;;;;;;;;;5119239;28;20343;-65
2022/08/16 01:24:42;;;;;;;1.95;1.85;;;;;;;;;;5119231;28;20203;-65
2022/08/16 01:27:12;;;;;;;1.88;1.77;;;;;;;;;;5118955;28;20230;-65
2022/08/16 01:29:42;;;;;;;2.08;1.98;;;;;;;;;;5119038;28;20207;-65
2022/08/16 01:32:09;;;;;;;2.10;2.00;;;;;;;;;;5118176;28;20681;-65
2022/08/16 01:34:36;;;;;;;2.00;1.90;;;;;;;;;;5118814;28;20283;-65
2022/08/16 01:37:06;;;;;;;2.00;1.90;;;;;;;;;;5118820;28;20272;-65
2022/08/16 01:39:34;;;;;;;2.00;1.90;;;;;;;;;;5118747;28;20290;-65
2022/08/16 01:42:03;;;;;;;2.10;2.00;;;;;;;;;;5118095;28;20239;-65
2022/08/16 01:44:30;;;;;;;2.10;2.00;;;;;;;;;;5118600;28;20453;-65
2022/08/16 01:46:58;;;;;;;2.03;1.92;;;;;;;;;;5118398;28;20214;-65
2022/08/16 01:49:26;;;;;;;2.33;2.13;;;;;;;;;;5118487;28;20474;-65
2022/08/16 01:51:55;;;;;;;1.98;1.80;;;;;;;;;;5118487;28;20202;-65
2022/08/16 01:54:23;;;;;;;1.98;1.88;;;;;;;;;;5118214;28;20229;-65
2022/08/16 01:56:50;;;;;;;2.05;1.95;;;;;;;;;;5118049;28;20203;-65
2022/08/16 01:59:19;;;;;;;2.38;2.28;;;;;;;;;;5118219;28;20203;-65
2022/08/16 02:01:47;;;;;;;2.33;2.13;;;;;;;;;;5118113;28;20267;-65
2022/08/16 02:04:14;;;;;;;2.20;2.10;;;;;;;;;;5118106;28;20583;-65
2022/08/16 02:06:42;;;;;;;2.10;1.90;;;;;;;;;;5118232;28;20203;-65
2022/08/16 02:09:11;;;;;;;2.35;2.20;;;;;;;;;;5118081;28;20575;-65
2022/08/16 02:11:38;;;;;;;2.10;1.92;;;;;;;;;;5118012;28;20439;-65
2022/08/16 02:14:06;;;;;;;2.15;2.05;;;;;;;;;;5117874;28;20234;-65
2022/08/16 02:16:35;;;;;;;2.00;1.90;;;;;;;;;;5118097;28;20301;-65
2022/08/16 02:19:02;;;;;;;2.40;2.20;;;;;;;;;;5117696;28;20211;-65
2022/08/16 02:21:31;;;;;;;2.22;2.13;;;;;;;;;;5118075;28;20218;-65
2022/08/16 02:23:58;;;;;;;2.40;2.20;;;;;;;;;;5117581;28;20218;-65
2022/08/16 02:26:26;;;;;;;2.00;1.90;;;;;;;;;;5117516;28;20203;-65
2022/08/16 02:28:53;;;;;;;2.30;2.20;;;;;;;;;;5117599;28;20527;-65
2022/08/16 02:31:20;;;;;;;2.38;2.28;;;;;;;;;;5117271;28;20587;-65
2022/08/16 02:33:50;;;;;;;2.30;2.10;;;;;;;;;;5117230;28;20226;-65
2022/08/16 02:36:18;;;;;;;2.10;2.00;;;;;;;;;;5117344;28;20195;-65
2022/08/16 02:38:46;;;;;;;2.20;2.10;;;;;;;;;;5117090;28;20267;-65
2022/08/16 02:41:14;;;;;;;2.17;2.03;;;;;;;;;;5117119;28;20691;-65
2022/08/16 02:43:41;;;;;;;2.28;2.17;;;;;;;;;;5117613;28;20206;-65
2022/08/16 02:46:09;;;;;;;2.35;2.25;;;;;;;;;;5117363;28;20602;-65
2022/08/16 02:48:38;;;;;;;2.40;2.20;;;;;;;;;;5117096;28;20217;-65
2022/08/16 02:51:08;;;;;;;2.30;2.10;;;;;;;;;;5117517;28;20297;-65
2022/08/16 02:53:36;;;;;;;2.00;1.90;;;;;;;;;;5116559;28;20627;-65
2022/08/16 02:56:05;;;;;;;2.30;2.10;;;;;;;;;;5117108;28;20202;-65
2022/08/16 02:58:32;;;;;;;2.38;2.20;;;;;;;;;;5116894;28;20203;-65
2022/08/16 03:01:00;;;;;;;2.13;2.03;;;;;;;;;;5117328;28;20203;-65
2022/08/16 03:03:28;;;;;;;2.55;2.35;;;;;;;;;;5117248;28;20557;-65
2022/08/16 03:05:55;;;;;;;2.28;2.17;;;;;;;;;;5116512;28;20206;-65
2022/08/16 03:08:24;;;;;;;2.08;1.98;;;;;;;;;;5116288;28;20259;-65
2022/08/16 03:10:52;;;;;;;2.50;2.30;;;;;;;;;;5117166;28;20226;-65
2022/08/16 03:13:19;;;;;;;2.28;2.17;;;;;;;;;;5117621;28;20280;-65
2022/08/16 03:15:48;;;;;;;2.10;2.00;;;;;;;;;;5116947;28;20202;-65
2022/08/16 03:18:15;;;;;;;2.33;2.22;;;;;;;;;;5117420;28;20613;-65
2022/08/16 03:20:42;;;;;;;2.30;2.20;;;;;;;;;;5116612;28;20557;-65
2022/08/16 03:23:09;;;;;;;2.15;2.05;;;;;;;;;;5116696;28;20490;-65
2022/08/16 03:25:38;;;;;;;2.35;2.25;;;;;;;;;;5097107;28;20204;-65
2022/08/16 03:28:06;;;;;;;2.25;2.15;;;;;;;;;;5106463;28;20571;-65
2022/08/16 03:30:35;;;;;;;2.20;2.10;;;;;;;;;;5116368;28;20212;-65
2022/08/16 03:33:02;;;;;;;2.40;2.30;;;;;;;;;;5117224;28;20214;-65
2022/08/16 03:35:31;;;;;;;2.20;2.10;;;;;;;;;;5116613;28;20264;-65
2022/08/16 03:37:59;;;;;;;2.65;2.45;;;;;;;;;;5116114;28;20271;-65
2022/08/16 03:40:27;;;;;;;2.30;2.20;;;;;;;;;;5118691;28;20268;-65
2022/08/16 03:42:56;;;;;;;2.40;2.30;;;;;;;;;;5121404;28;20459;-65
2022/08/16 03:45:25;;;;;;;2.55;2.40;;;;;;;;;;5121572;28;20203;-66
2022/08/16 03:47:52;;;;;;;2.33;2.22;;;;;;;;;;5120663;28;20199;-66
2022/08/16 03:50:20;;;;;;;2.30;2.10;;;;;;;;;;5120607;28;20271;-65
2022/08/16 03:52:48;;;;;;;2.47;2.30;;;;;;;;;;5120483;28;20229;-65
2022/08/16 03:55:18;;;;;;;2.35;2.25;;;;;;;;;;5119542;28;20203;-65
2022/08/16 03:57:52;;;;;;;2.42;2.28;;;;;;;;;;5120411;28;20229;-65
2022/08/16 04:00:23;;;;;;;2.15;2.05;;;;;;;;;;5120381;28;20218;-65
2022/08/16 04:02:51;;;;;;;2.30;2.20;;;;;;;;;;5120588;28;20195;-65
2022/08/16 04:05:18;;;;;;;2.13;2.03;;;;;;;;;;5120440;28;20534;-65
2022/08/16 04:07:46;;;;;;;2.40;2.30;;;;;;;;;;5120370;28;20260;-65
2022/08/16 04:10:14;;;;;;;2.28;2.17;;;;;;;;;;5119389;28;20500;-65
2022/08/16 04:12:42;;;;;;;2.45;2.30;;;;;;;;;;5119926;28;20252;-65
2022/08/16 04:15:11;;;;;;;2.58;2.38;;;;;;;;;;5119925;28;20275;-65
2022/08/16 04:17:40;;;;;;;2.45;2.35;;;;;;;;;;5119328;28;20202;-65
2022/08/16 04:20:08;;;;;;;2.10;2.00;;;;;;;;;;5120206;28;20301;-65
2022/08/16 04:22:36;;;;;;;2.60;2.50;;;;;;;;;;5120014;28;20543;-65
2022/08/16 04:25:04;;;;;;;2.38;2.17;;;;;;;;;;5119142;28;20209;-65
2022/08/16 04:27:32;;;;;;;2.22;2.13;;;;;;;;;;5119300;28;20222;-65
2022/08/16 04:29:59;;;;;;;2.45;2.25;;;;;;;;;;5118940;28;20196;-65
2022/08/16 04:32:26;;;;;;;2.20;2.10;;;;;;;;;;5119963;28;20279;-65
2022/08/16 04:34:55;;;;;;;2.65;2.45;;;;;;;;;;5119770;28;20230;-65
2022/08/16 04:37:22;;;;;;;2.40;2.20;;;;;;;;;;5118727;28;20256;-65
2022/08/16 04:39:50;;;;;;;2.30;2.20;;;;;;;;;;5119160;28;20698;-65
2022/08/16 04:42:17;;;;;;;2.35;2.15;;;;;;;;;;5118198;28;20223;-65
2022/08/16 04:44:45;;;;;;;2.45;2.33;;;;;;;;;;5118913;28;20195;-65
2022/08/16 04:47:12;;;;;;;2.45;2.25;;;;;;;;;;5118432;28;20301;-65
2022/08/16 04:49:39;;;;;;;2.55;2.35;;;;;;;;;;5118652;28;20211;-65
2022/08/16 04:52:09;;;;;;;2.25;2.15;;;;;;;;;;5117424;28;20518;-65
2022/08/16 04:54:36;;;;;;;2.85;2.42;;;;;;;;;;5119031;28;20226;-65
2022/08/16 04:57:03;;;;;;;2.35;2.20;;;;;;;;;;5118293;28;20225;-65
2022/08/16 04:59:31;;;;;;;2.72;2.53;;;;;;;;;;5118159;28;20287;-65
2022/08/16 05:01:58;;;;;;;2.58;2.38;;;;;;;;;;5117881;28;20216;-65
2022/08/16 05:04:26;;;;;;;2.50;2.40;;;;;;;;;;5118503;28;20195;-65
2022/08/16 05:06:53;;;;;;;2.50;2.33;;;;;;;;;;5118293;28;20210;-65
2022/08/16 05:09:22;;;;;;;2.45;2.35;;;;;;;;;;5117061;28;20659;-65
2022/08/16 05:11:49;;;;;;;2.35;2.25;;;;;;;;;;5118595;28;20195;-65
2022/08/16 05:14:16;;;;;;;2.50;2.30;;;;;;;;;;5117558;28;20219;-65
2022/08/16 05:16:43;;;;;;;2.60;2.40;;;;;;;;;;5118535;28;20203;-65
2022/08/16 05:19:11;;;;;;;2.42;2.30;;;;;;;;;;5117315;28;20602;-65
2022/08/16 05:21:38;;;;;;;2.60;2.50;;;;;;;;;;5118495;28;20268;-65
2022/08/16 05:24:06;;;;;;;2.55;2.38;;;;;;;;;;5117323;28;20195;-65
2022/08/16 05:26:36;;;;;;;2.30;2.20;;;;;;;;;;5117290;28;20530;-65
2022/08/16 05:29:05;;;;;;;2.42;2.28;;;;;;;;;;5116600;28;20237;-65
2022/08/16 05:31:33;;;;;;;2.40;2.30;;;;;;;;;;5117619;28;20207;-65
2022/08/16 05:34:01;;;;;;;2.53;2.40;;;;;;;;;;5116980;28;20551;-65
2022/08/16 05:36:28;;;;;;;2.38;2.28;;;;;;;;;;5116934;28;20195;-65
2022/08/16 05:38:56;;;;;;;2.33;2.22;;;;;;;;;;5116182;28;20487;-65
2022/08/16 05:41:23;;;;;;;2.38;2.28;;;;;;;;;;5115920;28;20761;-65
2022/08/16 05:43:52;;;;;;;2.72;2.25;;;;;;;;;;5115239;28;20812;-65
2022/08/16 05:46:20;;;;;;;2.30;2.20;;;;;;;;;;5116002;28;20203;-65
2022/08/16 05:48:47;;;;;;;2.25;2.15;;;;;;;;;;5116126;28;20214;-65
2022/08/16 05:51:14;;;;;;;2.47;2.28;;;;;;;;;;5115913;28;20210;-65
2022/08/16 05:53:42;;;;;;;2.40;2.30;;;;;;;;;;5116007;28;20783;-65
2022/08/16 05:56:09;;;;;;;2.40;2.30;;;;;;;;;;5117152;28;20210;-65
2022/08/16 05:58:36;;;;;;;2.40;2.30;;;;;;;;;;5116335;28;20574;-65
2022/08/16 06:01:05;;;;;;;2.40;2.20;;;;;;;;;;5116156;28;20600;-65
2022/08/16 06:03:32;;;;;;;2.50;2.30;;;;;;;;;;5115249;28;20202;-65
2022/08/16 06:06:00;;;;;;;2.50;2.30;;;;;;;;;;5115586;28;20203;-65
2022/08/16 06:08:27;;;;;;;2.42;2.33;;;;;;;;;;5115816;28;20202;-65
2022/08/16 06:10:54;;;;;;;2.05;1.95;;;;;;;;;;5115563;28;20251;-65
2022/08/16 06:13:22;;;;;;;2.10;2.00;;;;;;;;;;5115665;28;20799;-66
2022/08/16 06:15:50;;;;;;;2.35;2.25;;;;;;;;;;5115509;28;20268;-66
2022/08/16 06:18:19;;;;;;;2.30;2.10;;;;;;;;;;5112199;28;20203;-65
2022/08/16 06:20:46;;;;;;;2.17;2.08;;;;;;;;;;5116368;28;20587;-65
2022/08/16 06:23:14;;;;;;;2.20;2.10;;;;;;;;;;5116034;28;20199;-65
2022/08/16 06:25:41;;;;;;;2.20;2.00;;;;;;;;;;5115891;28;20660;-65
2022/08/16 06:28:10;;;;;;;2.33;2.13;;;;;;;;;;5115048;28;20195;-65
2022/08/16 06:30:38;;;;;;;2.58;2.38;;;;;;;;;;5114773;28;20203;-65
2022/08/16 06:33:05;;;;;;;2.30;2.17;;;;;;;;;;5114650;28;20575;-65
2022/08/16 06:35:34;;;;;;;2.20;2.05;;;;;;;;;;5115509;28;20306;-65
2022/08/16 06:38:01;;;;;;;2.42;2.22;;;;;;;;;;5115012;28;20244;-65
2022/08/16 06:40:29;;;;;;;2.35;2.15;;;;;;;;;;5115157;28;20501;-65
2022/08/16 06:42:56;;;;;;;2.30;2.10;;;;;;;;;;5114685;28;20572;-65
2022/08/16 06:45:24;;;;;;;2.67;2.47;;;;;;;;;;5115728;28;20195;-65
2022/08/16 06:47:51;;;;;;;2.63;2.42;;;;;;;;;;5114440;28;20203;-65
2022/08/16 06:50:19;;;;;;;2.47;2.38;;;;;;;;;;5114657;28;20199;-65
2022/08/16 06:52:47;;;;;;;2.55;2.42;;;;;;;;;;5114392;28;20708;-65
2022/08/16 06:55:17;;;;;;;2.90;2.20;;;;;;;;;;5114630;28;20223;-65
2022/08/16 06:57:44;;;;;;;2.60;2.40;;;;;;;;;;5113490;28;20206;-65
2022/08/16 07:00:13;;;;;;;2.15;2.05;;;;;;;;;;5114695;28;20203;-65
2022/08/16 07:02:41;;;;;;;2.10;2.00;;;;;;;;;;5114318;28;20199;-65
2022/08/16 07:05:09;;;;;;;2.42;2.30;;;;;;;;;;5113750;28;20203;-65
2022/08/16 07:07:36;;;;;;;2.33;2.22;;;;;;;;;;5114179;28;20202;-65
2022/08/16 07:10:06;;;;;;;2.35;2.15;;;;;;;;;;5098246;28;20610;-65
2022/08/16 07:12:34;;;;;;;2.35;2.25;;;;;;;;;;5114300;28;20619;-65
2022/08/16 07:15:03;;;;;;;2.10;2.00;;;;;;;;;;5115484;28;20219;-65
2022/08/16 07:17:31;;;;;;;2.08;1.98;;;;;;;;;;5119284;28;20194;-65
2022/08/16 07:19:59;;;;;;;2.40;2.20;;;;;;;;;;5117452;28;20199;-65
2022/08/16 07:22:27;;;;;;;2.45;2.25;;;;;;;;;;5118418;28;20734;-65
2022/08/16 07:24:54;;;;;;;2.20;2.10;;;;;;;;;;5118410;28;20195;-65
2022/08/16 07:27:23;;;;;;;2.50;2.30;;;;;;;;;;5117799;28;20252;-65
2022/08/16 07:29:50;;;;;;;2.17;2.08;;;;;;;;;;5118215;28;20469;-65
2022/08/16 07:32:19;;;;;;;2.50;2.38;;;;;;;;;;5119025;28;20202;-65
2022/08/16 07:34:47;;;;;;;2.42;2.22;;;;;;;;;;5117681;28;20280;-65
2022/08/16 07:37:14;;;;;;;2.10;2.00;;;;;;;;;;5117595;28;20199;-65
2022/08/16 07:39:41;;;;;;;2.47;2.38;;;;;;;;;;5118071;28;20202;-65
2022/08/16 07:42:09;;;;;;;2.60;2.40;;;;;;;;;;5118817;28;20234;-65
2022/08/16 07:44:37;;;;;;;2.90;2.70;;;;;;;;;;5118664;28;20610;-65
2022/08/16 07:47:05;;;;;;;2.42;2.25;;;;;;;;;;5117440;28;20199;-65
2022/08/16 07:49:32;;;;;;;2.47;2.28;;;;;;;;;;5117580;28;20206;-65
2022/08/16 07:51:59;;;;;;;2.35;2.20;;;;;;;;;;5109936;28;20254;-65
2022/08/16 07:54:27;;;;;;;2.83;2.63;;;;;;;;;;5118006;28;20229;-65
2022/08/16 07:56:54;;;;;;;2.40;2.20;;;;;;;;;;5117508;28;20194;-65
2022/08/16 07:59:23;;;;;;;2.55;2.35;;;;;;;;;;5118100;28;20207;-65
2022/08/16 08:01:52;;;;;;;2.65;2.45;;;;;;;;;;5117493;28;20272;-65
2022/08/16 08:04:19;;;;;;;2.40;2.30;;;;;;;;;;5117553;28;20195;-66
2022/08/16 08:06:47;;;;;;;2.55;2.35;;;;;;;;;;5117348;28;20191;-66
2022/08/16 08:09:14;;;;;;;2.83;2.63;;;;;;;;;;5117289;28;20206;-66
2022/08/16 08:11:41;;;;;;;2.85;2.58;;;;;;;;;;5117307;28;20195;-66
2022/08/16 08:14:09;;;;;;;2.75;2.55;;;;;;;;;;5116553;28;20219;-66
2022/08/16 08:16:36;;;;;;;2.70;2.50;;;;;;;;;;5118069;28;20267;-66
2022/08/16 08:19:09;;;;;;;2.47;2.38;;;;;;;;;;5117639;28;20195;-66
2022/08/16 08:21:36;;;;;;;2.58;2.38;;;;;;;;;;5117573;28;20221;-66
2022/08/16 08:24:04;;;;;;;2.38;2.17;;;;;;;;;;5115723;28;20195;-66
2022/08/16 08:26:31;;;;;;;2.65;2.45;;;;;;;;;;5117069;28;20620;-66
2022/08/16 08:28:58;;;;;;;2.80;2.60;;;;;;;;;;5116109;28;20199;-66
2022/08/16 08:31:26;;;;;;;2.28;2.17;;;;;;;;;;5115990;28;20203;-66
2022/08/16 08:33:55;;;;;;;2.72;2.53;;;;;;;;;;5116714;28;20201;-66
2022/08/16 08:36:27;;;;;;;2.35;2.15;;;;;;;;;;5117079;28;20691;-66
2022/08/16 08:38:54;;;;;;;2.28;2.17;;;;;;;;;;5117907;28;20290;-66
2022/08/16 08:41:22;;;;;;;2.70;2.47;;;;;;;;;;5117163;28;20279;-66
2022/08/16 08:43:50;;;;;;;2.47;2.28;;;;;;;;;;5116271;28;20195;-66
2022/08/16 08:46:17;;;;;;;2.35;2.15;;;;;;;;;;5116429;28;20195;-66
2022/08/16 08:48:45;;;;;;;3.15;2.85;;;;;;;;;;5116065;28;20268;-66
2022/08/16 08:51:12;;;;;;;2.80;2.60;;;;;;;;;;5115381;28;20199;-66
2022/08/16 08:53:42;;;;;;;2.35;2.25;;;;;;;;;;5115950;28;20199;-66
2022/08/16 08:56:09;;;;;;;3.45;2.30;;;;;;;;;;5116963;28;20227;-66
2022/08/16 08:58:37;;;;;;;2.65;2.45;;;;;;;;;;5117296;28;20267;-66
2022/08/16 09:01:05;;;;;;;2.72;2.53;;;;;;;;;;5116213;28;20579;-66
2022/08/16 09:03:33;;;;;;;2.70;2.50;;;;;;;;;;5115019;28;20564;-66
2022/08/16 09:06:00;;;;;;;2.55;2.35;;;;;;;;;;5113172;28;20195;-66
2022/08/16 09:08:30;;;;;;;2.85;2.65;;;;;;;;;;5115289;28;20807;-66
2022/08/16 09:10:59;;;;;;;2.63;2.42;;;;;;;;;;5116465;28;20195;-66
2022/08/16 09:13:27;;;;;;;3.45;2.80;;;;;;;;;;5115328;28;20199;-66
2022/08/16 09:15:55;;;;;;;2.55;2.35;;;;;;;;;;5115373;28;20219;-66
2022/08/16 09:18:23;;;;;;;2.70;2.50;;;;;;;;;;5116120;28;20202;-66
2022/08/16 09:20:51;;;;;;;2.70;2.50;;;;;;;;;;5116411;28;20601;-66
2022/08/16 09:23:20;;;;;;;2.58;2.40;;;;;;;;;;5117060;28;20297;-66
2022/08/16 09:25:47;;;;;;;3.15;2.47;;;;;;;;;;5115442;28;20299;-66
2022/08/16 09:28:17;;;;;;;2.47;2.38;;;;;;;;;;5115695;28;20242;-66
2022/08/16 09:30:44;;;;;;;2.60;2.40;;;;;;;;;;5116654;28;20238;-66
2022/08/16 09:33:17;;;;;;;2.58;2.38;;;;;;;;;;5116066;28;20203;-66
2022/08/16 09:35:44;;;;;;;2.53;2.33;;;;;;;;;;5115445;28;20233;-66
2022/08/16 09:38:12;;;;;;;2.45;2.33;;;;;;;;;;5113393;28;20199;-66
2022/08/16 09:40:41;;;;;;;2.63;2.45;;;;;;;;;;5114567;28;20238;-66
2022/08/16 09:43:08;;;;;;;2.85;2.30;;;;;;;;;;5115768;28;20203;-66
2022/08/16 09:45:39;;;;;;;3.00;2.80;;;;;;;;;;5114674;28;20247;-66
2022/08/16 09:48:06;;;;;;;2.80;2.60;;;;;;;;;;5116170;28;20229;-66
2022/08/16 09:50:35;;;;;;;2.90;2.70;;;;;;;;;;5116118;28;20245;-66
2022/08/16 09:53:04;;;;;;;2.72;2.40;;;;;;;;;;5114913;28;20214;-66
2022/08/16 09:55:32;;;;;;;3.15;2.63;;;;;;;;;;5114683;28;20314;-66
2022/08/16 09:58:00;;;;;;;2.80;2.60;;;;;;;;;;5114296;28;20691;-66
2022/08/16 10:00:27;;;;;;;2.83;2.50;;;;;;;;;;5114785;28;20203;-66
2022/08/16 10:02:57;;;;;;;2.75;2.55;;;;;;;;;;5114096;28;20199;-66
2022/08/16 10:05:25;;;;;;;2.85;2.65;;;;;;;;;;5114689;28;20684;-66
2022/08/16 10:07:53;;;;;;;2.78;2.40;;;;;;;;;;5114518;28;20195;-66
2022/08/16 10:10:23;;;;;;;2.85;2.65;;;;;;;;;;5114736;28;20211;-66
2022/08/16 10:15:36;;;;;;;2.53;2.33;;;;;;;;;;5114562;28;20351;-66
2022/08/16 10:18:06;;;;;;;2.65;2.40;;;;;;;;;;5115337;28;20264;-66
2022/08/16 10:20:35;;;;;;;2.97;2.55;;;;;;;;;;5114751;28;20587;-66
2022/08/16 10:23:02;;;;;;;2.50;2.30;;;;;;;;;;5112409;28;20263;-66
2022/08/16 10:25:30;;;;;;;2.70;2.50;;;;;;;;;;5112671;28;20203;-66
2022/08/16 10:27:59;;;;;;;2.58;2.38;;;;;;;;;;5113801;28;20238;-66
2022/08/16 10:30:27;;;;;;;2.63;2.40;;;;;;;;;;5114026;28;20297;-66
2022/08/16 10:32:54;;;;;;;2.60;2.50;;;;;;;;;;5113819;28;20260;-66
2022/08/16 10:35:23;;;;;;;2.70;2.50;;;;;;;;;;5113743;28;20614;-66
2022/08/16 10:37:51;;;;;;;2.60;2.40;;;;;;;;;;5113164;28;20620;-66
2022/08/16 10:40:19;;;;;;;2.55;2.35;;;;;;;;;;5113087;28;20202;-66
2022/08/16 10:42:48;;;;;;;2.70;2.50;;;;;;;;;;5114117;28;20263;-66
2022/08/16 10:45:15;;;;;;;2.50;2.30;;;;;;;;;;5114229;28;20206;-66
2022/08/16 10:47:43;;;;;;;2.53;2.28;;;;;;;;;;5092282;28;20199;-66
2022/08/16 10:50:10;;;;;;;2.65;2.45;;;;;;;;;;5094168;28;20203;-66
2022/08/16 10:52:39;;;;;;;2.50;2.40;;;;;;;;;;5094180;28;20202;-66
2022/08/16 10:55:11;;;;;;;2.33;2.20;;;;;;;;;;5093258;28;20223;-66
2022/08/16 10:57:39;;;;;;;2.30;2.20;;;;;;;;;;5113120;28;20211;-66
2022/08/16 11:00:08;;;;;;;2.22;2.13;;;;;;;;;;5113211;28;20468;-66
2022/08/16 11:02:37;;;;;;;2.42;2.25;;;;;;;;;;5114317;28;20198;-66
2022/08/16 11:05:10;;;;;;;2.65;2.45;;;;;;;;;;5114098;28;20223;-66
2022/08/16 11:07:40;;;;;;;2.45;2.30;;;;;;;;;;5112384;28;20199;-66
2022/08/16 11:10:08;;;;;;;2.85;2.47;;;;;;;;;;5113148;28;20335;-66
2022/08/16 11:12:35;;;;;;;2.50;2.30;;;;;;;;;;5113781;28;20327;-66
2022/08/16 11:15:04;;;;;;;2.75;2.55;;;;;;;;;;5113345;28;20501;-66
2022/08/16 11:17:31;;;;;;;2.67;2.47;;;;;;;;;;5113650;28;20203;-66
2022/08/16 11:19:59;;;;;;;3.25;2.20;;;;;;;;;;5114552;28;20210;-66
2022/08/16 11:22:27;;;;;;;2.30;2.10;;;;;;;;;;5113537;28;20198;-66
2022/08/16 11:24:56;;;;;;;2.50;2.30;;;;;;;;;;5113047;28;20221;-66
2022/08/16 11:27:23;;;;;;;2.33;2.17;;;;;;;;;;5113365;28;20199;-66
2022/08/16 11:29:52;;;;;;;2.38;2.17;;;;;;;;;;5112099;28;20209;-66
2022/08/16 11:32:19;;;;;;;2.50;2.40;;;;;;;;;;5113224;28;20234;-66
2022/08/16 11:34:46;;;;;;;2.30;2.10;;;;;;;;;;5112875;28;20199;-66
2022/08/16 11:37:14;;;;;;;2.63;2.40;;;;;;;;;;5113754;28;20610;-66
2022/08/16 11:39:42;;;;;;;2.30;2.10;;;;;;;;;;5113812;28;20214;-66
2022/08/16 11:42:10;;;;;;;2.20;2.10;;;;;;;;;;5112981;28;20235;-66
2022/08/16 11:44:38;;;;;;;2.53;2.33;;;;;;;;;;5113367;28;20199;-66
2022/08/16 11:47:06;;;;;;;3.33;2.17;;;;;;;;;;5113926;28;20210;-66
2022/08/16 11:49:33;;;;;;;2.55;2.45;;;;;;;;;;5112431;28;20751;-66
2022/08/16 11:52:00;;;;;;;2.78;2.30;;;;;;;;;;5113755;28;20210;-66
2022/08/16 11:54:28;;;;;;;2.35;2.15;;;;;;;;;;5112711;28;20195;-66
2022/08/16 11:56:55;;;;;;;2.47;2.28;;;;;;;;;;5113591;28;20561;-66
2022/08/16 11:59:26;;;;;;;2.20;2.10;;;;;;;;;;5113733;28;20610;-66
2022/08/16 12:01:53;;;;;;;2.40;2.30;;;;;;;;;;5116185;28;20604;-66
2022/08/16 12:04:21;;;;;;;2.65;2.45;;;;;;;;;;5117316;28;20259;-66
2022/08/16 12:06:48;;;;;;;2.47;2.28;;;;;;;;;;5116447;28;20289;-66
2022/08/16 12:09:15;;;;;;;2.45;2.25;;;;;;;;;;5115967;28;20203;-66
2022/08/16 12:11:43;;;;;;;2.45;2.25;;;;;;;;;;5116969;28;20275;-66
2022/08/16 12:14:11;;;;;;;2.63;2.42;;;;;;;;;;5116457;28;20205;-66
2022/08/16 12:16:39;;;;;;;2.58;2.38;;;;;;;;;;5117386;28;20219;-66
2022/08/16 12:19:09;;;;;;;2.35;2.10;;;;;;;;;;5117423;28;20207;-66
2022/08/16 12:21:36;;;;;;;2.50;2.30;;;;;;;;;;5117372;28;20203;-66
2022/08/16 12:24:04;;;;;;;2.53;2.42;;;;;;;;;;5117079;28;20287;-66
2022/08/16 12:26:32;;;;;;;2.35;2.25;;;;;;;;;;5115959;28;20206;-66
2022/08/16 12:29:00;;;;;;;2.40;2.20;;;;;;;;;;5115171;28;20203;-66
2022/08/16 12:31:28;;;;;;;2.20;2.10;;;;;;;;;;5115959;28;20578;-66
2022/08/16 12:33:56;;;;;;;2.60;2.50;;;;;;;;;;5116039;28;20191;-66
2022/08/16 12:36:24;;;;;;;2.63;2.42;;;;;;;;;;5115878;28;20547;-66
2022/08/16 12:38:53;;;;;;;2.45;2.25;;;;;;;;;;5115403;28;20253;-66
2022/08/16 12:41:21;;;;;;;2.88;2.50;;;;;;;;;;5115779;28;20230;-66
2022/08/16 12:43:49;;;;;;;2.45;2.35;;;;;;;;;;5116082;28;20611;-66
2022/08/16 12:46:16;;;;;;;2.60;2.40;;;;;;;;;;5116178;28;20294;-66
2022/08/16 12:48:57;;;;;;;2.63;2.42;;;;;;;;;;5116483;28;20202;-66
2022/08/16 12:51:27;;;;;;;2.28;2.17;;;;;;;;;;5115721;28;20194;-66
2022/08/16 12:53:56;;;;;;;2.30;2.20;;;;;;;;;;5115702;28;20195;-66
2022/08/16 12:56:25;;;;;;;2.60;2.40;;;;;;;;;;5115967;28;20532;-66
2022/08/16 12:58:53;;;;;;;2.72;2.53;;;;;;;;;;5115785;28;20203;-66
2022/08/16 13:01:21;;;;;;;2.35;2.20;;;;;;;;;;5115216;28;20199;-66
2022/08/16 13:03:49;;;;;;;2.40;2.30;;;;;;;;;;5114228;28;20261;-66
2022/08/16 13:06:17;;;;;;;2.45;2.25;;;;;;;;;;5115116;28;20350;-66
2022/08/16 13:08:45;;;;;;;2.85;2.33;;;;;;;;;;5113954;28;20263;-66
2022/08/16 13:11:13;;;;;;;2.53;2.38;;;;;;;;;;5115687;28;20210;-66
2022/08/16 13:13:40;;;;;;;2.55;2.35;;;;;;;;;;5113234;28;20721;-66
2022/08/16 13:16:07;;;;;;;2.35;2.25;;;;;;;;;;5114716;28;20211;-66
2022/08/16 13:18:35;;;;;;;2.40;2.30;;;;;;;;;;5114790;28;20291;-66
2022/08/16 13:21:03;;;;;;;2.42;2.30;;;;;;;;;;5114878;28;20202;-66
2022/08/16 13:23:31;;;;;;;2.70;2.50;;;;;;;;;;5115584;28;20512;-66
2022/08/16 13:26:00;;;;;;;2.40;2.30;;;;;;;;;;5115587;28;20195;-66
2022/08/16 13:28:27;;;;;;;3.13;2.85;;;;;;;;;;5114250;28;20218;-66
2022/08/16 13:30:55;;;;;;;2.58;2.47;;;;;;;;;;5114241;28;20203;-66
2022/08/16 13:33:27;;;;;;;2.72;2.53;;;;;;;;;;5114996;28;20203;-66
2022/08/16 13:35:55;;;;;;;2.90;2.70;;;;;;;;;;5094821;28;20215;-66
2022/08/16 13:38:23;;;;;;;3.00;2.58;;;;;;;;;;5094982;28;20203;-66
2022/08/16 13:40:51;;;;;;;3.05;2.85;;;;;;;;;;5094366;28;20242;-66
2022/08/16 13:43:22;;;;;;;2.53;2.33;;;;;;;;;;5094757;28;20196;-66
2022/08/16 13:45:50;;;;;;;2.95;2.75;;;;;;;;;;5114777;28;20199;-66
2022/08/16 13:48:18;;;;;;;2.55;2.35;;;;;;;;;;5114822;28;20210;-66
2022/08/16 13:50:45;;;;;;;2.78;2.58;;;;;;;;;;5114555;28;20728;-66
2022/08/16 13:53:13;;;;;;;2.65;2.45;;;;;;;;;;5114451;28;20267;-66
2022/08/16 13:55:40;;;;;;;2.80;2.60;;;;;;;;;;5113775;28;20492;-66
2022/08/16 13:58:07;;;;;;;2.78;2.60;;;;;;;;;;5114179;28;20207;-66
2022/08/16 14:00:36;;;;;;;2.70;2.50;;;;;;;;;;5114301;28;20590;-66
2022/08/16 14:03:04;;;;;;;3.20;2.67;;;;;;;;;;5113904;28;20211;-66
2022/08/16 14:05:31;;;;;;;2.80;2.60;;;;;;;;;;5113410;28;20590;-66
2022/08/16 14:07:59;;;;;;;2.53;2.33;;;;;;;;;;5114315;28;20624;-66
2022/08/16 14:10:26;;;;;;;2.50;2.30;;;;;;;;;;5114422;28;20271;-66
2022/08/16 14:12:54;;;;;;;2.50;2.30;;;;;;;;;;5113328;28;20207;-66
2022/08/16 14:15:22;;;;;;;2.55;2.45;;;;;;;;;;5113703;28;20613;-66
2022/08/16 14:17:50;;;;;;;2.67;2.55;;;;;;;;;;5113647;28;20782;-66
2022/08/16 14:20:18;;;;;;;2.70;2.53;;;;;;;;;;5113699;28;20773;-66
2022/08/16 14:22:45;;;;;;;2.70;2.50;;;;;;;;;;5112539;28;20199;-66
2022/08/16 14:25:16;;;;;;;2.60;2.47;;;;;;;;;;5114041;28;20207;-66
2022/08/16 14:27:43;;;;;;;2.53;2.40;;;;;;;;;;5114487;28;20270;-66
2022/08/16 14:30:14;;;;;;;2.72;2.63;;;;;;;;;;5114432;28;20622;-66
2022/08/16 14:32:41;;;;;;;2.50;2.40;;;;;;;;;;5114260;28;20213;-66
2022/08/16 14:35:12;;;;;;;2.60;2.50;;;;;;;;;;5114629;28;20288;-66
2022/08/16 14:37:40;;;;;;;2.53;2.42;;;;;;;;;;5113479;28;20326;-66
2022/08/16 14:40:09;;;;;;;2.78;2.58;;;;;;;;;;5114256;28;20214;-66
2022/08/16 14:42:37;;;;;;;2.70;2.50;;;;;;;;;;5112933;28;20809;-66
2022/08/16 14:45:07;;;;;;;3.03;2.83;;;;;;;;;;5113166;28;20571;-66
2022/08/16 14:47:35;;;;;;;2.78;2.60;;;;;;;;;;5113852;28;20191;-66
2022/08/16 14:50:03;;;;;;;2.55;2.45;;;;;;;;;;5113218;28;20205;-66